sensor_id;sensor_type;location;lat;lon;timestamp;P1;durP1;ratioP1;P2;durP2;ratioP2
59169;SDS011;52474;52.236;5.114;2023-06-26T00:00:18;11.18;;;9.13;;
59169;SDS011;52474;52.236;5.114;2023-06-26T00:02:45;10.80;;;9.60;;
59169;SDS011;52474;52.236;5.114;2023-06-26T00:05:10;11.70;;;9.55;;
59169;SDS011;52474;52.236;5.114;2023-06-26T00:07:36;10.98;;;9.13;;
59169;SDS011;52474;52.236;5.114;2023-06-26T00:10:02;11.13;;;9.65;;
59169;SDS011;52474;52.236;5.114;2023-06-26T00:12:29;10.20;;;9.13;;
59169;SDS011;52474;52.236;5.114;2023-06-26T00:14:56;10.88;;;9.60;;
59169;SDS011;52474;52.236;5.114;2023-06-26T00:17:22;11.05;;;8.32;;
59169;SDS011;52474;52.236;5.114;2023-06-26T00:19:48;11.68;;;8.82;;
59169;SDS011;52474;52.236;5.114;2023-06-26T00:22:14;8.93;;;7.95;;
59169;SDS011;52474;52.236;5.114;2023-06-26T00:24:40;9.77;;;7.60;;
59169;SDS011;52474;52.236;5.114;2023-06-26T00:27:05;9.57;;;7.68;;
59169;SDS011;52474;52.236;5.114;2023-06-26T00:29:31;9.30;;;8.05;;
59169;SDS011;52474;52.236;5.114;2023-06-26T00:31:57;8.02;;;7.22;;
59169;SDS011;52474;52.236;5.114;2023-06-26T00:34:22;10.32;;;8.10;;
59169;SDS011;52474;52.236;5.114;2023-06-26T00:36:48;11.45;;;8.98;;
59169;SDS011;52474;52.236;5.114;2023-06-26T00:39:14;10.15;;;8.57;;
59169;SDS011;52474;52.236;5.114;2023-06-26T00:41:40;9.68;;;8.32;;
59169;SDS011;52474;52.236;5.114;2023-06-26T00:44:06;9.82;;;8.57;;
59169;SDS011;52474;52.236;5.114;2023-06-26T00:46:32;9.90;;;8.20;;
59169;SDS011;52474;52.236;5.114;2023-06-26T00:49:00;9.68;;;8.68;;
59169;SDS011;52474;52.236;5.114;2023-06-26T00:51:31;9.30;;;8.30;;
59169;SDS011;52474;52.236;5.114;2023-06-26T00:53:57;9.48;;;8.45;;
59169;SDS011;52474;52.236;5.114;2023-06-26T00:56:23;10.27;;;8.55;;
59169;SDS011;52474;52.236;5.114;2023-06-26T00:58:49;10.60;;;8.63;;
59169;SDS011;52474;52.236;5.114;2023-06-26T01:01:15;10.65;;;8.00;;
59169;SDS011;52474;52.236;5.114;2023-06-26T01:03:43;9.18;;;7.70;;
59169;SDS011;52474;52.236;5.114;2023-06-26T01:06:11;9.40;;;7.38;;
59169;SDS011;52474;52.236;5.114;2023-06-26T01:08:39;8.90;;;8.00;;
59169;SDS011;52474;52.236;5.114;2023-06-26T01:11:07;9.70;;;8.05;;
59169;SDS011;52474;52.236;5.114;2023-06-26T01:13:33;8.73;;;7.30;;
59169;SDS011;52474;52.236;5.114;2023-06-26T01:16:01;10.18;;;7.80;;
59169;SDS011;52474;52.236;5.114;2023-06-26T01:18:27;14.07;;;8.35;;
59169;SDS011;52474;52.236;5.114;2023-06-26T01:20:56;12.30;;;9.40;;
59169;SDS011;52474;52.236;5.114;2023-06-26T01:26:22;11.80;;;9.68;;
59169;SDS011;52474;52.236;5.114;2023-06-26T01:28:51;12.60;;;8.85;;
59169;SDS011;52474;52.236;5.114;2023-06-26T01:31:19;9.57;;;7.20;;
59169;SDS011;52474;52.236;5.114;2023-06-26T01:33:45;9.27;;;6.80;;
59169;SDS011;52474;52.236;5.114;2023-06-26T01:36:12;13.32;;;7.10;;
59169;SDS011;52474;52.236;5.114;2023-06-26T01:38:38;8.82;;;6.57;;
59169;SDS011;52474;52.236;5.114;2023-06-26T01:41:04;8.07;;;6.57;;
59169;SDS011;52474;52.236;5.114;2023-06-26T01:46:25;9.18;;;6.00;;
59169;SDS011;52474;52.236;5.114;2023-06-26T01:49:01;8.38;;;5.70;;
59169;SDS011;52474;52.236;5.114;2023-06-26T01:51:46;9.98;;;5.80;;
59169;SDS011;52474;52.236;5.114;2023-06-26T01:54:17;9.85;;;5.20;;
59169;SDS011;52474;52.236;5.114;2023-06-26T01:56:48;9.73;;;5.40;;
59169;SDS011;52474;52.236;5.114;2023-06-26T01:59:14;7.93;;;4.90;;
59169;SDS011;52474;52.236;5.114;2023-06-26T02:01:42;7.50;;;5.28;;
59169;SDS011;52474;52.236;5.114;2023-06-26T02:04:07;9.68;;;5.35;;
59169;SDS011;52474;52.236;5.114;2023-06-26T02:06:33;9.88;;;5.38;;
59169;SDS011;52474;52.236;5.114;2023-06-26T02:08:59;8.45;;;5.05;;
59169;SDS011;52474;52.236;5.114;2023-06-26T02:11:25;9.68;;;5.50;;
59169;SDS011;52474;52.236;5.114;2023-06-26T02:13:51;14.55;;;5.85;;
59169;SDS011;52474;52.236;5.114;2023-06-26T02:16:17;11.20;;;5.30;;
59169;SDS011;52474;52.236;5.114;2023-06-26T02:18:42;12.00;;;5.55;;
59169;SDS011;52474;52.236;5.114;2023-06-26T02:21:08;12.05;;;5.53;;
59169;SDS011;52474;52.236;5.114;2023-06-26T02:23:36;11.48;;;5.25;;
59169;SDS011;52474;52.236;5.114;2023-06-26T02:26:04;9.73;;;4.90;;
59169;SDS011;52474;52.236;5.114;2023-06-26T02:28:29;13.25;;;5.50;;
59169;SDS011;52474;52.236;5.114;2023-06-26T02:30:56;10.50;;;5.57;;
59169;SDS011;52474;52.236;5.114;2023-06-26T02:33:23;11.00;;;5.45;;
59169;SDS011;52474;52.236;5.114;2023-06-26T02:35:49;12.95;;;5.32;;
59169;SDS011;52474;52.236;5.114;2023-06-26T02:38:15;16.98;;;5.65;;
59169;SDS011;52474;52.236;5.114;2023-06-26T02:40:41;13.18;;;5.85;;
59169;SDS011;52474;52.236;5.114;2023-06-26T02:43:07;14.48;;;5.97;;
59169;SDS011;52474;52.236;5.114;2023-06-26T02:45:33;16.73;;;6.43;;
59169;SDS011;52474;52.236;5.114;2023-06-26T02:47:58;18.08;;;6.22;;
59169;SDS011;52474;52.236;5.114;2023-06-26T02:50:24;16.00;;;5.97;;
59169;SDS011;52474;52.236;5.114;2023-06-26T02:53:16;14.75;;;6.50;;
59169;SDS011;52474;52.236;5.114;2023-06-26T02:55:44;15.45;;;5.70;;
59169;SDS011;52474;52.236;5.114;2023-06-26T02:58:10;15.95;;;6.50;;
59169;SDS011;52474;52.236;5.114;2023-06-26T03:00:37;14.27;;;6.72;;
59169;SDS011;52474;52.236;5.114;2023-06-26T03:03:08;18.20;;;6.10;;
59169;SDS011;52474;52.236;5.114;2023-06-26T03:05:34;15.05;;;7.10;;
59169;SDS011;52474;52.236;5.114;2023-06-26T03:08:01;16.05;;;5.90;;
59169;SDS011;52474;52.236;5.114;2023-06-26T03:10:28;17.77;;;6.75;;
59169;SDS011;52474;52.236;5.114;2023-06-26T03:12:54;18.05;;;6.75;;
59169;SDS011;52474;52.236;5.114;2023-06-26T03:15:19;17.40;;;6.35;;
59169;SDS011;52474;52.236;5.114;2023-06-26T03:17:45;23.05;;;7.00;;
59169;SDS011;52474;52.236;5.114;2023-06-26T03:20:19;20.25;;;6.70;;
59169;SDS011;52474;52.236;5.114;2023-06-26T03:22:51;22.02;;;6.93;;
59169;SDS011;52474;52.236;5.114;2023-06-26T03:25:19;17.85;;;6.35;;
59169;SDS011;52474;52.236;5.114;2023-06-26T03:27:45;16.70;;;6.55;;
59169;SDS011;52474;52.236;5.114;2023-06-26T03:30:13;23.00;;;7.20;;
59169;SDS011;52474;52.236;5.114;2023-06-26T03:32:41;21.65;;;7.10;;
59169;SDS011;52474;52.236;5.114;2023-06-26T03:35:06;16.92;;;6.63;;
59169;SDS011;52474;52.236;5.114;2023-06-26T03:37:33;16.27;;;6.25;;
59169;SDS011;52474;52.236;5.114;2023-06-26T03:39:59;14.85;;;6.07;;
59169;SDS011;52474;52.236;5.114;2023-06-26T03:42:24;23.60;;;6.90;;
59169;SDS011;52474;52.236;5.114;2023-06-26T03:44:50;22.92;;;6.63;;
59169;SDS011;52474;52.236;5.114;2023-06-26T03:47:17;17.30;;;6.45;;
59169;SDS011;52474;52.236;5.114;2023-06-26T03:49:43;14.43;;;5.65;;
59169;SDS011;52474;52.236;5.114;2023-06-26T03:52:09;19.17;;;6.10;;
59169;SDS011;52474;52.236;5.114;2023-06-26T03:54:35;16.13;;;6.03;;
59169;SDS011;52474;52.236;5.114;2023-06-26T03:57:00;18.17;;;6.38;;
59169;SDS011;52474;52.236;5.114;2023-06-26T03:59:26;12.90;;;5.35;;
59169;SDS011;52474;52.236;5.114;2023-06-26T04:01:52;14.30;;;5.53;;
59169;SDS011;52474;52.236;5.114;2023-06-26T04:04:18;21.05;;;6.40;;
59169;SDS011;52474;52.236;5.114;2023-06-26T04:06:44;14.60;;;6.22;;
59169;SDS011;52474;52.236;5.114;2023-06-26T04:09:10;13.75;;;5.85;;
59169;SDS011;52474;52.236;5.114;2023-06-26T04:11:35;17.85;;;5.85;;
59169;SDS011;52474;52.236;5.114;2023-06-26T04:14:01;13.65;;;5.30;;
59169;SDS011;52474;52.236;5.114;2023-06-26T04:16:28;8.45;;;4.78;;
59169;SDS011;52474;52.236;5.114;2023-06-26T04:18:54;13.30;;;5.78;;
59169;SDS011;52474;52.236;5.114;2023-06-26T04:21:21;14.95;;;5.35;;
59169;SDS011;52474;52.236;5.114;2023-06-26T04:23:50;14.65;;;4.93;;
59169;SDS011;52474;52.236;5.114;2023-06-26T04:26:16;15.55;;;5.10;;
59169;SDS011;52474;52.236;5.114;2023-06-26T04:28:42;10.73;;;4.85;;
59169;SDS011;52474;52.236;5.114;2023-06-26T04:31:08;12.80;;;5.50;;
59169;SDS011;52474;52.236;5.114;2023-06-26T04:33:35;12.63;;;5.13;;
59169;SDS011;52474;52.236;5.114;2023-06-26T04:36:04;14.35;;;4.85;;
59169;SDS011;52474;52.236;5.114;2023-06-26T04:38:33;9.07;;;4.50;;
59169;SDS011;52474;52.236;5.114;2023-06-26T04:40:59;11.70;;;4.67;;
59169;SDS011;52474;52.236;5.114;2023-06-26T04:43:25;10.20;;;4.70;;
59169;SDS011;52474;52.236;5.114;2023-06-26T04:45:51;10.73;;;4.53;;
59169;SDS011;52474;52.236;5.114;2023-06-26T04:48:17;9.23;;;4.43;;
59169;SDS011;52474;52.236;5.114;2023-06-26T04:50:42;12.82;;;4.32;;
59169;SDS011;52474;52.236;5.114;2023-06-26T04:53:08;8.48;;;4.10;;
59169;SDS011;52474;52.236;5.114;2023-06-26T04:55:34;9.15;;;4.35;;
59169;SDS011;52474;52.236;5.114;2023-06-26T04:58:00;9.45;;;4.00;;
59169;SDS011;52474;52.236;5.114;2023-06-26T05:00:26;8.65;;;4.07;;
59169;SDS011;52474;52.236;5.114;2023-06-26T05:02:52;7.13;;;3.63;;
59169;SDS011;52474;52.236;5.114;2023-06-26T05:05:25;7.22;;;4.00;;
59169;SDS011;52474;52.236;5.114;2023-06-26T05:07:54;7.55;;;4.43;;
59169;SDS011;52474;52.236;5.114;2023-06-26T05:10:21;9.68;;;3.72;;
59169;SDS011;52474;52.236;5.114;2023-06-26T05:12:47;7.03;;;3.28;;
59169;SDS011;52474;52.236;5.114;2023-06-26T05:15:13;5.30;;;3.30;;
59169;SDS011;52474;52.236;5.114;2023-06-26T05:17:39;6.75;;;3.20;;
59169;SDS011;52474;52.236;5.114;2023-06-26T05:20:04;5.95;;;3.53;;
59169;SDS011;52474;52.236;5.114;2023-06-26T05:22:31;6.45;;;3.20;;
59169;SDS011;52474;52.236;5.114;2023-06-26T05:24:59;6.43;;;3.03;;
59169;SDS011;52474;52.236;5.114;2023-06-26T05:27:26;6.18;;;3.05;;
59169;SDS011;52474;52.236;5.114;2023-06-26T05:29:52;6.72;;;3.00;;
59169;SDS011;52474;52.236;5.114;2023-06-26T05:32:18;8.18;;;3.30;;
59169;SDS011;52474;52.236;5.114;2023-06-26T05:34:47;6.57;;;3.13;;
59169;SDS011;52474;52.236;5.114;2023-06-26T05:37:19;9.02;;;2.92;;
59169;SDS011;52474;52.236;5.114;2023-06-26T05:39:46;6.95;;;3.25;;
59169;SDS011;52474;52.236;5.114;2023-06-26T05:42:13;6.45;;;3.30;;
59169;SDS011;52474;52.236;5.114;2023-06-26T05:44:39;6.35;;;3.03;;
59169;SDS011;52474;52.236;5.114;2023-06-26T05:47:04;7.45;;;3.38;;
59169;SDS011;52474;52.236;5.114;2023-06-26T05:49:30;5.97;;;3.50;;
59169;SDS011;52474;52.236;5.114;2023-06-26T05:51:56;10.02;;;3.53;;
59169;SDS011;52474;52.236;5.114;2023-06-26T05:54:23;6.93;;;3.38;;
59169;SDS011;52474;52.236;5.114;2023-06-26T05:56:50;7.10;;;3.10;;
59169;SDS011;52474;52.236;5.114;2023-06-26T05:59:20;5.70;;;3.05;;
59169;SDS011;52474;52.236;5.114;2023-06-26T06:01:47;6.70;;;3.20;;
59169;SDS011;52474;52.236;5.114;2023-06-26T06:04:13;6.53;;;2.97;;
59169;SDS011;52474;52.236;5.114;2023-06-26T06:06:39;6.60;;;2.90;;
59169;SDS011;52474;52.236;5.114;2023-06-26T06:09:04;6.38;;;2.88;;
59169;SDS011;52474;52.236;5.114;2023-06-26T06:11:30;5.28;;;2.50;;
59169;SDS011;52474;52.236;5.114;2023-06-26T06:13:56;5.00;;;2.67;;
59169;SDS011;52474;52.236;5.114;2023-06-26T06:16:24;5.25;;;2.80;;
59169;SDS011;52474;52.236;5.114;2023-06-26T06:18:49;5.97;;;2.70;;
59169;SDS011;52474;52.236;5.114;2023-06-26T06:21:15;7.00;;;3.10;;
59169;SDS011;52474;52.236;5.114;2023-06-26T06:23:41;5.25;;;2.97;;
59169;SDS011;52474;52.236;5.114;2023-06-26T06:26:07;6.63;;;2.72;;
59169;SDS011;52474;52.236;5.114;2023-06-26T06:28:32;4.07;;;2.83;;
59169;SDS011;52474;52.236;5.114;2023-06-26T06:30:58;6.15;;;3.50;;
59169;SDS011;52474;52.236;5.114;2023-06-26T06:33:24;6.28;;;3.45;;
59169;SDS011;52474;52.236;5.114;2023-06-26T06:35:49;6.15;;;3.30;;
59169;SDS011;52474;52.236;5.114;2023-06-26T06:38:15;8.60;;;3.40;;
59169;SDS011;52474;52.236;5.114;2023-06-26T06:40:41;5.10;;;3.20;;
59169;SDS011;52474;52.236;5.114;2023-06-26T06:43:06;4.93;;;2.75;;
59169;SDS011;52474;52.236;5.114;2023-06-26T06:45:32;5.88;;;2.92;;
59169;SDS011;52474;52.236;5.114;2023-06-26T06:47:58;6.95;;;3.47;;
59169;SDS011;52474;52.236;5.114;2023-06-26T06:50:23;7.40;;;3.25;;
59169;SDS011;52474;52.236;5.114;2023-06-26T06:52:49;5.15;;;3.25;;
59169;SDS011;52474;52.236;5.114;2023-06-26T06:55:15;11.48;;;3.40;;
59169;SDS011;52474;52.236;5.114;2023-06-26T06:57:40;7.05;;;3.05;;
59169;SDS011;52474;52.236;5.114;2023-06-26T07:00:10;7.35;;;2.97;;
59169;SDS011;52474;52.236;5.114;2023-06-26T07:02:37;9.38;;;3.15;;
59169;SDS011;52474;52.236;5.114;2023-06-26T07:05:03;6.63;;;2.80;;
59169;SDS011;52474;52.236;5.114;2023-06-26T07:07:30;5.78;;;3.00;;
59169;SDS011;52474;52.236;5.114;2023-06-26T07:10:04;5.45;;;2.75;;
59169;SDS011;52474;52.236;5.114;2023-06-26T07:12:31;7.45;;;3.00;;
59169;SDS011;52474;52.236;5.114;2023-06-26T07:14:57;7.93;;;2.58;;
59169;SDS011;52474;52.236;5.114;2023-06-26T07:17:23;6.97;;;3.22;;
59169;SDS011;52474;52.236;5.114;2023-06-26T07:19:49;7.28;;;2.90;;
59169;SDS011;52474;52.236;5.114;2023-06-26T07:22:15;6.13;;;2.60;;
59169;SDS011;52474;52.236;5.114;2023-06-26T07:24:41;7.47;;;3.13;;
59169;SDS011;52474;52.236;5.114;2023-06-26T07:27:07;6.15;;;2.78;;
59169;SDS011;52474;52.236;5.114;2023-06-26T07:29:33;8.82;;;3.08;;
59169;SDS011;52474;52.236;5.114;2023-06-26T07:31:58;8.40;;;2.58;;
59169;SDS011;52474;52.236;5.114;2023-06-26T07:34:24;6.35;;;2.50;;
59169;SDS011;52474;52.236;5.114;2023-06-26T07:36:50;7.80;;;2.40;;
59169;SDS011;52474;52.236;5.114;2023-06-26T07:39:15;6.18;;;2.22;;
59169;SDS011;52474;52.236;5.114;2023-06-26T07:41:41;6.10;;;2.50;;
59169;SDS011;52474;52.236;5.114;2023-06-26T07:44:07;6.82;;;2.60;;
59169;SDS011;52474;52.236;5.114;2023-06-26T07:46:32;11.15;;;2.60;;
59169;SDS011;52474;52.236;5.114;2023-06-26T07:48:58;7.30;;;2.58;;
59169;SDS011;52474;52.236;5.114;2023-06-26T07:51:24;7.70;;;2.45;;
59169;SDS011;52474;52.236;5.114;2023-06-26T07:53:49;7.78;;;2.35;;
59169;SDS011;52474;52.236;5.114;2023-06-26T07:56:15;3.78;;;2.50;;
59169;SDS011;52474;52.236;5.114;2023-06-26T07:58:41;6.90;;;2.97;;
59169;SDS011;52474;52.236;5.114;2023-06-26T08:01:07;6.90;;;2.03;;
59169;SDS011;52474;52.236;5.114;2023-06-26T08:03:32;5.38;;;2.30;;
59169;SDS011;52474;52.236;5.114;2023-06-26T08:05:58;7.00;;;2.45;;
59169;SDS011;52474;52.236;5.114;2023-06-26T08:08:24;5.80;;;2.13;;
59169;SDS011;52474;52.236;5.114;2023-06-26T08:10:49;5.85;;;2.33;;
59169;SDS011;52474;52.236;5.114;2023-06-26T08:13:15;7.32;;;2.00;;
59169;SDS011;52474;52.236;5.114;2023-06-26T08:15:41;7.30;;;2.20;;
59169;SDS011;52474;52.236;5.114;2023-06-26T08:18:06;6.28;;;2.35;;
59169;SDS011;52474;52.236;5.114;2023-06-26T08:20:32;7.63;;;2.20;;
59169;SDS011;52474;52.236;5.114;2023-06-26T08:23:01;6.68;;;1.88;;
59169;SDS011;52474;52.236;5.114;2023-06-26T08:25:27;5.57;;;2.10;;
59169;SDS011;52474;52.236;5.114;2023-06-26T08:27:52;5.10;;;1.85;;
59169;SDS011;52474;52.236;5.114;2023-06-26T08:30:19;5.45;;;2.10;;
59169;SDS011;52474;52.236;5.114;2023-06-26T08:32:45;8.18;;;2.40;;
59169;SDS011;52474;52.236;5.114;2023-06-26T08:35:10;13.43;;;2.28;;
59169;SDS011;52474;52.236;5.114;2023-06-26T08:37:36;7.28;;;2.28;;
59169;SDS011;52474;52.236;5.114;2023-06-26T08:40:02;6.65;;;2.40;;
59169;SDS011;52474;52.236;5.114;2023-06-26T08:42:29;5.15;;;2.08;;
59169;SDS011;52474;52.236;5.114;2023-06-26T08:44:54;5.10;;;2.25;;
59169;SDS011;52474;52.236;5.114;2023-06-26T08:47:20;7.60;;;2.33;;
59169;SDS011;52474;52.236;5.114;2023-06-26T08:52:56;5.78;;;2.20;;
59169;SDS011;52474;52.236;5.114;2023-06-26T08:55:23;8.85;;;2.05;;
59169;SDS011;52474;52.236;5.114;2023-06-26T08:57:52;9.48;;;2.00;;
59169;SDS011;52474;52.236;5.114;2023-06-26T09:00:19;6.47;;;2.30;;
59169;SDS011;52474;52.236;5.114;2023-06-26T09:02:45;5.05;;;2.00;;
59169;SDS011;52474;52.236;5.114;2023-06-26T09:05:11;6.55;;;2.22;;
59169;SDS011;52474;52.236;5.114;2023-06-26T09:07:37;6.15;;;2.20;;
59169;SDS011;52474;52.236;5.114;2023-06-26T09:10:03;4.80;;;2.47;;
59169;SDS011;52474;52.236;5.114;2023-06-26T09:12:28;7.75;;;2.38;;
59169;SDS011;52474;52.236;5.114;2023-06-26T09:14:55;7.00;;;1.92;;
59169;SDS011;52474;52.236;5.114;2023-06-26T09:17:25;6.53;;;2.15;;
59169;SDS011;52474;52.236;5.114;2023-06-26T09:19:54;4.10;;;2.25;;
59169;SDS011;52474;52.236;5.114;2023-06-26T09:22:20;6.15;;;1.92;;
59169;SDS011;52474;52.236;5.114;2023-06-26T09:24:47;9.90;;;2.45;;
59169;SDS011;52474;52.236;5.114;2023-06-26T09:27:12;5.07;;;1.90;;
59169;SDS011;52474;52.236;5.114;2023-06-26T09:29:38;4.60;;;1.95;;
59169;SDS011;52474;52.236;5.114;2023-06-26T09:32:04;4.63;;;1.80;;
59169;SDS011;52474;52.236;5.114;2023-06-26T09:34:30;3.72;;;1.52;;
59169;SDS011;52474;52.236;5.114;2023-06-26T09:36:57;5.45;;;1.80;;
59169;SDS011;52474;52.236;5.114;2023-06-26T09:39:23;5.03;;;1.70;;
59169;SDS011;52474;52.236;5.114;2023-06-26T09:41:49;4.03;;;1.20;;
59169;SDS011;52474;52.236;5.114;2023-06-26T09:44:16;3.03;;;1.42;;
59169;SDS011;52474;52.236;5.114;2023-06-26T09:46:44;5.22;;;1.45;;
59169;SDS011;52474;52.236;5.114;2023-06-26T09:49:11;4.25;;;1.40;;
59169;SDS011;52474;52.236;5.114;2023-06-26T09:51:38;4.32;;;1.73;;
59169;SDS011;52474;52.236;5.114;2023-06-26T09:54:05;6.50;;;1.77;;
59169;SDS011;52474;52.236;5.114;2023-06-26T09:56:32;4.78;;;2.22;;
59169;SDS011;52474;52.236;5.114;2023-06-26T09:59:02;7.63;;;1.48;;
59169;SDS011;52474;52.236;5.114;2023-06-26T10:01:30;4.78;;;1.90;;
59169;SDS011;52474;52.236;5.114;2023-06-26T10:03:57;2.78;;;1.38;;
59169;SDS011;52474;52.236;5.114;2023-06-26T10:06:27;3.65;;;1.60;;
59169;SDS011;52474;52.236;5.114;2023-06-26T10:08:57;4.35;;;1.63;;
59169;SDS011;52474;52.236;5.114;2023-06-26T10:11:25;3.75;;;1.48;;
59169;SDS011;52474;52.236;5.114;2023-06-26T10:14:00;3.83;;;1.45;;
59169;SDS011;52474;52.236;5.114;2023-06-26T10:16:28;5.47;;;1.40;;
59169;SDS011;52474;52.236;5.114;2023-06-26T10:19:00;2.30;;;1.30;;
59169;SDS011;52474;52.236;5.114;2023-06-26T10:21:30;4.03;;;1.55;;
59169;SDS011;52474;52.236;5.114;2023-06-26T10:23:57;2.97;;;1.58;;
59169;SDS011;52474;52.236;5.114;2023-06-26T10:26:24;3.22;;;1.27;;
59169;SDS011;52474;52.236;5.114;2023-06-26T10:28:52;2.75;;;1.30;;
59169;SDS011;52474;52.236;5.114;2023-06-26T10:31:20;3.10;;;1.50;;
59169;SDS011;52474;52.236;5.114;2023-06-26T10:33:51;3.33;;;1.50;;
59169;SDS011;52474;52.236;5.114;2023-06-26T10:36:18;5.32;;;1.70;;
59169;SDS011;52474;52.236;5.114;2023-06-26T10:38:52;5.35;;;1.85;;
59169;SDS011;52474;52.236;5.114;2023-06-26T10:41:21;5.18;;;1.80;;
59169;SDS011;52474;52.236;5.114;2023-06-26T10:46:25;7.22;;;1.75;;
59169;SDS011;52474;52.236;5.114;2023-06-26T10:48:57;3.08;;;1.50;;
59169;SDS011;52474;52.236;5.114;2023-06-26T10:51:26;4.55;;;1.42;;
59169;SDS011;52474;52.236;5.114;2023-06-26T10:53:54;2.80;;;1.38;;
59169;SDS011;52474;52.236;5.114;2023-06-26T10:56:20;5.03;;;1.40;;
59169;SDS011;52474;52.236;5.114;2023-06-26T10:58:47;4.55;;;1.65;;
59169;SDS011;52474;52.236;5.114;2023-06-26T11:03:40;4.07;;;1.48;;
59169;SDS011;52474;52.236;5.114;2023-06-26T11:06:10;6.35;;;1.60;;
59169;SDS011;52474;52.236;5.114;2023-06-26T11:08:44;5.55;;;1.67;;
59169;SDS011;52474;52.236;5.114;2023-06-26T11:11:19;5.18;;;1.70;;
59169;SDS011;52474;52.236;5.114;2023-06-26T11:13:46;6.43;;;1.50;;
59169;SDS011;52474;52.236;5.114;2023-06-26T11:16:13;4.53;;;1.10;;
59169;SDS011;52474;52.236;5.114;2023-06-26T11:18:42;3.15;;;1.40;;
59169;SDS011;52474;52.236;5.114;2023-06-26T11:21:08;5.35;;;1.52;;
59169;SDS011;52474;52.236;5.114;2023-06-26T11:23:36;11.60;;;2.08;;
59169;SDS011;52474;52.236;5.114;2023-06-26T11:28:50;8.18;;;1.98;;
59169;SDS011;52474;52.236;5.114;2023-06-26T11:31:26;3.55;;;1.35;;
59169;SDS011;52474;52.236;5.114;2023-06-26T11:33:57;3.85;;;1.45;;
59169;SDS011;52474;52.236;5.114;2023-06-26T11:36:24;3.28;;;1.20;;
59169;SDS011;52474;52.236;5.114;2023-06-26T11:41:28;5.65;;;1.60;;
59169;SDS011;52474;52.236;5.114;2023-06-26T11:44:03;4.63;;;1.65;;
59169;SDS011;52474;52.236;5.114;2023-06-26T11:46:30;6.47;;;1.40;;
59169;SDS011;52474;52.236;5.114;2023-06-26T11:48:57;4.35;;;1.25;;
59169;SDS011;52474;52.236;5.114;2023-06-26T11:51:23;4.47;;;1.20;;
59169;SDS011;52474;52.236;5.114;2023-06-26T11:53:49;3.47;;;1.35;;
59169;SDS011;52474;52.236;5.114;2023-06-26T11:56:16;3.50;;;1.38;;
59169;SDS011;52474;52.236;5.114;2023-06-26T12:01:41;5.20;;;1.10;;
59169;SDS011;52474;52.236;5.114;2023-06-26T12:04:11;2.47;;;1.33;;
59169;SDS011;52474;52.236;5.114;2023-06-26T12:06:39;2.50;;;1.08;;
59169;SDS011;52474;52.236;5.114;2023-06-26T12:09:08;4.00;;;1.40;;
59169;SDS011;52474;52.236;5.114;2023-06-26T12:11:36;3.03;;;1.27;;
59169;SDS011;52474;52.236;5.114;2023-06-26T12:14:04;2.85;;;1.20;;
59169;SDS011;52474;52.236;5.114;2023-06-26T12:16:31;4.90;;;1.55;;
59169;SDS011;52474;52.236;5.114;2023-06-26T12:19:03;5.50;;;1.40;;
59169;SDS011;52474;52.236;5.114;2023-06-26T12:24:07;5.63;;;1.40;;
59169;SDS011;52474;52.236;5.114;2023-06-26T12:26:35;4.93;;;1.40;;
59169;SDS011;52474;52.236;5.114;2023-06-26T12:29:08;5.18;;;1.50;;
59169;SDS011;52474;52.236;5.114;2023-06-26T12:31:34;3.50;;;1.00;;
59169;SDS011;52474;52.236;5.114;2023-06-26T12:34:01;5.05;;;1.30;;
59169;SDS011;52474;52.236;5.114;2023-06-26T12:36:27;3.88;;;1.60;;
59169;SDS011;52474;52.236;5.114;2023-06-26T12:38:53;2.58;;;1.10;;
59169;SDS011;52474;52.236;5.114;2023-06-26T12:41:19;4.90;;;1.20;;
59169;SDS011;52474;52.236;5.114;2023-06-26T12:43:45;2.78;;;1.05;;
59169;SDS011;52474;52.236;5.114;2023-06-26T12:46:12;5.70;;;1.30;;
59169;SDS011;52474;52.236;5.114;2023-06-26T12:48:41;2.70;;;1.10;;
59169;SDS011;52474;52.236;5.114;2023-06-26T12:51:12;2.38;;;1.05;;
59169;SDS011;52474;52.236;5.114;2023-06-26T12:53:40;3.55;;;1.27;;
59169;SDS011;52474;52.236;5.114;2023-06-26T12:56:06;2.75;;;0.90;;
59169;SDS011;52474;52.236;5.114;2023-06-26T12:58:33;6.63;;;1.40;;
59169;SDS011;52474;52.236;5.114;2023-06-26T13:00:59;4.88;;;1.42;;
59169;SDS011;52474;52.236;5.114;2023-06-26T13:03:26;3.25;;;1.30;;
59169;SDS011;52474;52.236;5.114;2023-06-26T13:05:52;2.75;;;1.20;;
59169;SDS011;52474;52.236;5.114;2023-06-26T13:08:18;2.83;;;1.27;;
59169;SDS011;52474;52.236;5.114;2023-06-26T13:10:44;4.00;;;1.10;;
59169;SDS011;52474;52.236;5.114;2023-06-26T13:13:10;8.48;;;1.50;;
59169;SDS011;52474;52.236;5.114;2023-06-26T13:15:36;3.40;;;1.40;;
59169;SDS011;52474;52.236;5.114;2023-06-26T13:18:02;4.13;;;1.50;;
59169;SDS011;52474;52.236;5.114;2023-06-26T13:20:28;2.65;;;1.10;;
59169;SDS011;52474;52.236;5.114;2023-06-26T13:22:54;4.30;;;1.40;;
59169;SDS011;52474;52.236;5.114;2023-06-26T13:25:21;2.72;;;1.30;;
59169;SDS011;52474;52.236;5.114;2023-06-26T13:27:47;4.78;;;1.48;;
59169;SDS011;52474;52.236;5.114;2023-06-26T13:30:14;4.05;;;1.00;;
59169;SDS011;52474;52.236;5.114;2023-06-26T13:32:40;4.22;;;1.35;;
59169;SDS011;52474;52.236;5.114;2023-06-26T13:35:06;4.40;;;1.50;;
59169;SDS011;52474;52.236;5.114;2023-06-26T13:37:32;3.30;;;1.30;;
59169;SDS011;52474;52.236;5.114;2023-06-26T13:42:28;3.28;;;1.55;;
59169;SDS011;52474;52.236;5.114;2023-06-26T13:44:53;2.22;;;1.20;;
59169;SDS011;52474;52.236;5.114;2023-06-26T13:47:19;4.15;;;1.45;;
59169;SDS011;52474;52.236;5.114;2023-06-26T13:49:45;3.08;;;1.08;;
59169;SDS011;52474;52.236;5.114;2023-06-26T13:52:10;5.25;;;1.35;;
59169;SDS011;52474;52.236;5.114;2023-06-26T13:54:36;2.92;;;1.17;;
59169;SDS011;52474;52.236;5.114;2023-06-26T13:57:05;4.65;;;1.50;;
59169;SDS011;52474;52.236;5.114;2023-06-26T13:59:31;3.05;;;1.05;;
59169;SDS011;52474;52.236;5.114;2023-06-26T14:01:57;5.03;;;1.50;;
59169;SDS011;52474;52.236;5.114;2023-06-26T14:04:24;2.80;;;1.15;;
59169;SDS011;52474;52.236;5.114;2023-06-26T14:06:50;2.67;;;1.30;;
59169;SDS011;52474;52.236;5.114;2023-06-26T14:09:16;3.67;;;0.95;;
59169;SDS011;52474;52.236;5.114;2023-06-26T14:11:43;4.05;;;1.02;;
59169;SDS011;52474;52.236;5.114;2023-06-26T14:14:09;3.42;;;1.20;;
59169;SDS011;52474;52.236;5.114;2023-06-26T14:16:34;4.20;;;1.23;;
59169;SDS011;52474;52.236;5.114;2023-06-26T14:19:00;1.92;;;1.20;;
59169;SDS011;52474;52.236;5.114;2023-06-26T14:21:27;2.67;;;1.33;;
59169;SDS011;52474;52.236;5.114;2023-06-26T14:23:54;3.03;;;1.00;;
59169;SDS011;52474;52.236;5.114;2023-06-26T14:26:20;3.72;;;1.20;;
59169;SDS011;52474;52.236;5.114;2023-06-26T14:28:46;3.03;;;1.20;;
59169;SDS011;52474;52.236;5.114;2023-06-26T14:31:12;2.88;;;1.15;;
59169;SDS011;52474;52.236;5.114;2023-06-26T14:33:38;3.03;;;1.25;;
59169;SDS011;52474;52.236;5.114;2023-06-26T14:36:04;3.72;;;1.48;;
59169;SDS011;52474;52.236;5.114;2023-06-26T14:38:30;4.75;;;2.22;;
59169;SDS011;52474;52.236;5.114;2023-06-26T14:40:55;3.80;;;1.30;;
59169;SDS011;52474;52.236;5.114;2023-06-26T14:43:21;3.42;;;1.20;;
59169;SDS011;52474;52.236;5.114;2023-06-26T14:45:47;1.50;;;1.05;;
59169;SDS011;52474;52.236;5.114;2023-06-26T14:48:13;3.92;;;1.30;;
59169;SDS011;52474;52.236;5.114;2023-06-26T14:50:38;4.53;;;1.10;;
59169;SDS011;52474;52.236;5.114;2023-06-26T14:53:04;3.58;;;1.30;;
59169;SDS011;52474;52.236;5.114;2023-06-26T14:55:30;4.85;;;1.50;;
59169;SDS011;52474;52.236;5.114;2023-06-26T14:57:56;3.08;;;1.30;;
59169;SDS011;52474;52.236;5.114;2023-06-26T15:00:21;5.70;;;1.33;;
59169;SDS011;52474;52.236;5.114;2023-06-26T15:02:47;6.03;;;1.60;;
59169;SDS011;52474;52.236;5.114;2023-06-26T15:05:13;2.83;;;1.20;;
59169;SDS011;52474;52.236;5.114;2023-06-26T15:07:39;3.60;;;1.40;;
59169;SDS011;52474;52.236;5.114;2023-06-26T15:10:05;3.22;;;1.30;;